Time;durP1;ratioP1;P1;durP2;ratioP2;P2;SDS_P1;SDS_P2;PMS_P1;PMS_P2;Temp;Humidity;BMP_temperature;BMP_pressure;BME280_temperature;BME280_humidity;BME280_pressure;Samples;Min_cycle;Max_cycle;Signal;HPM_P1;HPM_P2
2021/04/17 00:01:44;;;;;;;5.38;3.00;;;;;;;5.92;63.79;101267.88;5032175;28;20112;-66
2021/04/17 00:04:12;;;;;;;4.07;2.67;;;;;;;5.86;64.20;101268.28;5005700;28;20092;-66
2021/04/17 00:06:38;;;;;;;4.97;2.80;;;;;;;5.83;64.00;101262.41;5027001;28;20041;-66
2021/04/17 00:09:08;;;;;;;4.78;2.72;;;;;;;5.79;64.43;101261.78;5025125;28;20046;-67
2021/04/17 00:11:34;;;;;;;3.28;2.03;;;;;;;5.76;65.01;101261.97;5018698;28;20506;-66
2021/04/17 00:14:00;;;;;;;3.10;2.17;;;;;;;5.66;65.55;101258.31;5026777;28;20115;-66
2021/04/17 00:16:26;;;;;;;4.32;2.40;;;;;;;5.62;64.87;101252.41;5031418;28;20038;-66
2021/04/17 00:18:51;;;;;;;3.55;2.20;;;;;;;5.63;64.83;101253.25;5013646;28;20057;-66
2021/04/17 00:21:18;;;;;;;2.95;1.90;;;;;;;5.62;64.65;101248.94;5025192;28;20033;-66
2021/04/17 00:23:43;;;;;;;2.90;1.73;;;;;;;5.59;65.59;101251.78;5021736;28;20030;-66
2021/04/17 00:26:09;;;;;;;6.45;2.90;;;;;;;5.51;65.39;101242.63;5021079;28;20046;-67
2021/04/17 00:28:34;;;;;;;4.10;2.63;;;;;;;5.40;65.96;101244.28;5028148;28;20030;-66
2021/04/17 00:30:59;;;;;;;3.35;2.00;;;;;;;5.40;65.49;101236.41;5018274;28;20045;-65
2021/04/17 00:33:25;;;;;;;2.38;1.60;;;;;;;5.38;66.98;101238.28;5008548;28;20041;-65
2021/04/17 00:35:50;;;;;;;2.55;1.60;;;;;;;5.38;67.21;101239.13;5018630;28;20069;-66
2021/04/17 00:38:15;;;;;;;2.78;1.70;;;;;;;5.37;65.70;101242.69;5018032;28;20097;-67
2021/04/17 00:40:41;;;;;;;3.25;2.03;;;;;;;5.37;66.12;101247.13;5012768;28;20088;-66
2021/04/17 00:43:06;;;;;;;3.75;2.40;;;;;;;5.35;65.62;101235.88;5012874;28;20117;-66
2021/04/17 00:45:33;;;;;;;1.98;1.50;;;;;;;5.27;67.27;101233.75;4996400;28;20394;-67
2021/04/17 00:47:58;;;;;;;4.05;2.55;;;;;;;5.35;65.71;101225.38;5021450;28;20040;-66
2021/04/17 00:50:25;;;;;;;3.75;2.53;;;;;;;5.37;65.28;101226.97;5019976;28;20025;-67
2021/04/17 00:52:51;;;;;;;2.72;1.80;;;;;;;5.29;67.20;101230.09;5028828;28;20105;-66
2021/04/17 00:55:17;;;;;;;3.75;2.15;;;;;;;5.27;66.00;101229.34;5015812;28;20043;-67
2021/04/17 00:57:42;;;;;;;3.17;1.92;;;;;;;5.24;66.28;101229.56;5032758;28;20109;-67
2021/04/17 01:00:09;;;;;;;3.28;2.47;;;;;;;5.24;65.83;101229.56;5015428;28;20509;-67
2021/04/17 01:02:43;;;;;;;4.53;2.50;;;;;;;5.26;65.85;101232.91;5013192;28;20053;-67
2021/04/17 01:05:12;;;;;;;3.60;2.20;;;;;;;5.22;65.50;101228.81;5019000;28;20089;-66
2021/04/17 01:07:42;;;;;;;4.55;2.95;;;;;;;5.22;65.74;101230.56;5023439;28;20116;-70
2021/04/17 01:10:13;;;;;;;7.10;2.93;;;;;;;5.20;65.82;101228.06;5028871;28;20026;-66
2021/04/17 01:12:39;;;;;;;;;;;;;;;5.19;66.54;101231.63;5004661;28;20459;-66
2021/04/17 01:15:07;;;;;;;3.40;2.10;;;;;;;5.10;68.75;101226.97;5031090;28;19919;-66
2021/04/17 01:17:33;;;;;;;4.20;2.80;;;;;;;5.13;66.05;101232.03;5011785;28;20041;-66
2021/04/17 01:20:18;;;;;;;3.38;2.40;;;;;;;5.13;65.84;101231.19;5015636;28;20038;-66
2021/04/17 01:23:11;;;;;;;3.13;2.25;;;;;;;5.12;66.20;101235.56;5020806;28;20045;-66
2021/04/17 01:25:51;;;;;;;3.42;2.05;;;;;;;5.07;67.13;101235.88;5022562;28;20034;-66
2021/04/17 01:28:18;;;;;;;3.25;2.10;;;;;;;5.08;66.68;101234.94;5025573;28;20029;-67
2021/04/17 01:30:46;;;;;;;4.00;2.30;;;;;;;5.10;66.79;101234.81;5007325;28;20037;-66
2021/04/17 01:33:12;;;;;;;4.20;3.00;;;;;;;5.17;66.53;101228.25;5006875;28;20029;-66
2021/04/17 01:35:37;;;;;;;4.00;2.30;;;;;;;5.11;66.71;101229.50;5023324;28;20064;-66
2021/04/17 01:38:12;;;;;;;3.42;2.47;;;;;;;5.15;66.67;101230.16;5019940;28;20065;-67
2021/04/17 01:40:39;;;;;;;4.22;2.60;;;;;;;5.13;66.73;101226.78;5022377;28;20458;-66
2021/04/17 01:43:05;;;;;;;4.50;2.97;;;;;;;5.14;66.94;101227.63;5018119;28;20475;-66
2021/04/17 01:45:32;;;;;;;5.68;2.80;;;;;;;5.16;66.79;101225.75;5029589;28;20068;-66
2021/04/17 01:48:00;;;;;;;4.60;2.88;;;;;;;5.04;67.64;101222.13;5028463;28;20485;-66
2021/04/17 01:50:28;;;;;;;3.30;2.65;;;;;;;5.05;67.01;101222.06;5013983;28;20041;-66
2021/04/17 01:52:55;;;;;;;3.60;2.15;;;;;;;5.03;67.02;101215.19;5022288;28;20048;-66
2021/04/17 01:55:21;;;;;;;3.85;2.75;;;;;;;5.00;67.32;101220.66;5030553;28;20124;-67
2021/04/17 01:57:50;;;;;;;4.07;2.30;;;;;;;4.97;66.77;101210.38;5027327;28;20038;-66
2021/04/17 02:00:16;;;;;;;3.13;2.15;;;;;;;4.92;67.08;101215.91;5026289;28;20452;-66
2021/04/17 02:02:42;;;;;;;4.40;2.65;;;;;;;4.86;67.16;101213.66;5004010;28;20030;-66
2021/04/17 02:05:07;;;;;;;4.60;2.78;;;;;;;4.85;67.47;101214.63;5024904;28;20384;-66
2021/04/17 02:07:33;;;;;;;4.78;2.80;;;;;;;4.81;67.57;101211.34;5026837;28;20120;-66
2021/04/17 02:09:58;;;;;;;3.45;2.00;;;;;;;4.65;69.02;101214.09;5018862;28;20538;-66
2021/04/17 02:12:23;;;;;;;4.38;2.63;;;;;;;4.65;68.27;101210.66;5015942;28;20033;-66
2021/04/17 02:14:49;;;;;;;4.15;2.90;;;;;;;4.67;68.13;101219.22;5010004;28;20033;-66
2021/04/17 02:17:24;;;;;;;4.05;2.55;;;;;;;4.57;68.31;101205.03;5007026;28;20596;-66
2021/04/17 02:19:56;;;;;;;4.82;2.70;;;;;;;4.55;68.24;101212.13;5021448;28;20052;-66
2021/04/17 02:22:23;;;;;;;5.60;2.70;;;;;;;4.58;68.17;101214.59;5020402;28;20113;-66
2021/04/17 02:24:50;;;;;;;4.25;3.00;;;;;;;4.56;68.21;101200.75;5029501;28;20029;-66
2021/04/17 02:27:16;;;;;;;3.75;2.53;;;;;;;4.47;68.36;101210.00;5020089;28;20057;-66
2021/04/17 02:29:41;;;;;;;4.07;2.55;;;;;;;4.41;68.41;101208.63;5024566;28;20084;-66
2021/04/17 02:32:13;;;;;;;4.68;2.85;;;;;;;4.40;68.41;101201.69;5020505;28;20046;-66
2021/04/17 02:34:40;;;;;;;4.10;2.80;;;;;;;4.35;68.58;101203.75;5012200;28;20371;-66
2021/04/17 02:37:05;;;;;;;4.28;2.70;;;;;;;4.31;68.93;101199.63;5021532;28;20045;-66
2021/04/17 02:39:30;;;;;;;3.53;2.42;;;;;;;4.26;68.76;101197.28;5026940;28;20401;-66
2021/04/17 02:41:57;;;;;;;4.30;2.40;;;;;;;4.28;68.82;101196.38;5000266;28;20029;-66
2021/04/17 02:44:22;;;;;;;4.75;2.80;;;;;;;4.18;69.23;101194.31;5021661;28;20038;-66
2021/04/17 02:46:48;;;;;;;3.85;2.45;;;;;;;4.15;69.18;101183.22;5029524;28;20359;-66
2021/04/17 02:49:13;;;;;;;4.22;2.80;;;;;;;4.14;69.39;101195.44;5019351;28;20125;-66
2021/04/17 02:51:38;;;;;;;3.50;2.40;;;;;;;4.10;69.69;101195.72;5012565;28;20029;-66
2021/04/17 02:54:04;;;;;;;4.97;2.63;;;;;;;4.10;69.48;101187.88;5027190;28;20490;-66
2021/04/17 02:56:29;;;;;;;3.55;2.70;;;;;;;4.11;69.31;101189.56;5021209;28;20038;-66
2021/04/17 02:58:54;;;;;;;4.47;2.65;;;;;;;4.07;70.11;101185.44;5008302;28;20038;-66
2021/04/17 03:01:20;;;;;;;3.15;2.47;;;;;;;4.06;69.61;101186.38;5010173;28;20072;-66
2021/04/17 03:03:45;;;;;;;4.03;2.60;;;;;;;4.06;69.44;101183.78;5022972;28;20056;-66
2021/04/17 03:06:10;;;;;;;5.15;3.00;;;;;;;4.09;69.38;101178.34;5023832;28;20530;-68
2021/04/17 03:08:36;;;;;;;4.75;3.13;;;;;;;4.08;69.73;101184.53;5024727;28;20040;-66
2021/04/17 03:11:01;;;;;;;4.75;2.78;;;;;;;4.02;69.75;101176.09;5020395;28;20468;-66
2021/04/17 03:13:27;;;;;;;4.60;2.88;;;;;;;3.97;70.01;101178.16;5000553;28;20026;-66
2021/04/17 03:15:52;;;;;;;5.15;2.83;;;;;;;3.92;70.22;101174.13;5008288;28;20421;-66
2021/04/17 03:18:17;;;;;;;4.35;2.80;;;;;;;3.91;70.04;101170.69;5024949;28;20030;-66
2021/04/17 03:20:42;;;;;;;4.47;3.17;;;;;;;3.95;69.82;101172.16;5021930;28;20402;-66
2021/04/17 03:23:08;;;;;;;5.82;3.17;;;;;;;3.90;70.19;101166.38;5025567;28;20121;-67
2021/04/17 03:25:33;;;;;;;5.75;3.40;;;;;;;3.94;69.75;101164.44;5023514;28;20120;-66
2021/04/17 03:27:58;;;;;;;4.22;2.97;;;;;;;3.90;69.85;101168.16;5008666;28;20046;-66
2021/04/17 03:30:28;;;;;;;4.55;3.17;;;;;;;3.88;70.04;101163.00;5007509;28;20036;-66
2021/04/17 03:32:56;;;;;;;5.68;3.17;;;;;;;3.91;69.56;101162.84;5013910;28;20081;-66
2021/04/17 03:35:22;;;;;;;4.90;3.08;;;;;;;3.89;70.01;101164.72;5020949;28;20022;-66
2021/04/17 03:37:47;;;;;;;3.97;2.88;;;;;;;3.80;70.00;101160.84;5026281;28;20040;-66
2021/04/17 03:40:13;;;;;;;4.00;2.78;;;;;;;3.82;69.74;101159.00;5016012;28;20025;-67
2021/04/17 03:42:39;;;;;;;4.20;2.85;;;;;;;3.82;69.99;101161.63;5029284;28;20036;-66
2021/04/17 03:45:06;;;;;;;6.00;3.47;;;;;;;3.85;70.00;101159.75;5008222;28;20034;-67
2021/04/17 03:47:31;;;;;;;4.05;3.03;;;;;;;3.82;69.93;101160.78;5025865;28;20033;-66
2021/04/17 03:49:56;;;;;;;3.97;2.90;;;;;;;3.82;69.92;101163.41;5029310;28;20041;-66
2021/04/17 03:52:22;;;;;;;4.88;2.85;;;;;;;3.80;70.14;101160.03;5005565;28;20045;-67
2021/04/17 03:54:47;;;;;;;4.85;3.08;;;;;;;3.81;70.12;101157.31;5026270;28;20498;-66
2021/04/17 03:57:13;;;;;;;4.97;3.00;;;;;;;3.84;69.87;101156.31;5005675;28;20033;-67
2021/04/17 03:59:39;;;;;;;3.80;2.85;;;;;;;3.78;70.29;101156.66;5031583;28;20041;-66
2021/04/17 04:02:04;;;;;;;6.20;3.00;;;;;;;3.75;70.36;101165.53;5016854;28;20040;-66
2021/04/17 04:04:29;;;;;;;4.75;3.15;;;;;;;3.85;70.08;101162.38;5025025;28;20470;-66
2021/04/17 04:06:54;;;;;;;5.63;2.97;;;;;;;3.73;70.53;101158.72;5027526;28;20202;-66
2021/04/17 04:09:20;;;;;;;3.92;2.50;;;;;;;3.69;71.13;101170.28;5029324;28;20022;-67
2021/04/17 04:11:45;;;;;;;5.05;3.10;;;;;;;3.81;70.09;101170.41;5015297;28;20053;-66
2021/04/17 04:14:11;;;;;;;4.47;3.05;;;;;;;3.74;70.29;101176.94;5031147;28;20041;-67
2021/04/17 04:16:36;;;;;;;4.53;2.92;;;;;;;3.68;71.32;101161.59;5017601;28;20029;-67
2021/04/17 04:19:01;;;;;;;3.42;2.60;;;;;;;3.70;70.62;101166.75;5023056;28;20057;-67
2021/04/17 04:21:27;;;;;;;4.60;3.00;;;;;;;3.70;70.58;101170.19;5021966;28;20045;-66
2021/04/17 04:23:52;;;;;;;4.60;2.60;;;;;;;3.71;70.74;101171.03;5021527;28;20084;-67
2021/04/17 04:26:18;;;;;;;3.30;2.30;;;;;;;3.76;70.45;101169.81;4997949;28;20095;-67
2021/04/17 04:28:43;;;;;;;5.43;3.00;;;;;;;3.79;70.08;101169.66;5023457;28;20409;-67
2021/04/17 04:31:09;;;;;;;4.90;2.53;;;;;;;3.72;70.74;101173.56;5004414;28;20046;-67
2021/04/17 04:33:34;;;;;;;2.25;1.70;;;;;;;3.70;70.89;101166.75;5011957;28;20418;-67
2021/04/17 04:35:59;;;;;;;4.93;2.70;;;;;;;3.77;70.16;101168.06;5019657;28;20034;-66
2021/04/17 04:38:25;;;;;;;3.67;2.63;;;;;;;3.79;70.28;101168.78;5022477;28;20046;-66
2021/04/17 04:40:51;;;;;;;4.10;2.28;;;;;;;3.81;70.62;101170.41;5022503;28;20084;-66
2021/04/17 04:43:16;;;;;;;3.95;2.72;;;;;;;3.76;70.40;101169.81;5023012;28;20069;-66
2021/04/17 04:45:42;;;;;;;2.83;1.92;;;;;;;3.70;71.66;101167.59;5013918;28;20037;-66
2021/04/17 04:48:09;;;;;;;2.78;1.95;;;;;;;3.77;71.67;101170.69;5004873;28;20080;-67
2021/04/17 04:50:35;;;;;;;3.67;2.50;;;;;;;3.89;69.85;101175.16;5022640;28;20629;-67
2021/04/17 04:53:01;;;;;;;5.07;2.60;;;;;;;3.90;69.95;101181.25;5024460;28;20145;-66
2021/04/17 04:55:26;;;;;;;4.28;2.65;;;;;;;3.86;70.18;101174.50;5022358;28;20544;-66
2021/04/17 04:57:51;;;;;;;3.55;2.88;;;;;;;3.88;70.41;101183.94;5013991;28;20038;-66
2021/04/17 05:00:17;;;;;;;5.18;2.80;;;;;;;3.90;69.81;101184.69;5021733;28;20044;-66
2021/04/17 05:02:42;;;;;;;3.97;2.38;;;;;;;3.86;70.58;101183.19;5021813;28;20128;-66
2021/04/17 05:05:08;;;;;;;3.95;2.40;;;;;;;3.86;70.43;101180.56;5017034;28;20157;-67
2021/04/17 05:07:34;;;;;;;4.57;2.95;;;;;;;3.96;69.75;101175.66;5022404;28;20390;-66
2021/04/17 05:09:59;;;;;;;3.60;2.15;;;;;;;3.93;69.90;101181.03;5013377;28;20057;-66
2021/04/17 05:12:24;;;;;;;3.63;2.53;;;;;;;3.92;70.53;101177.59;4998243;28;20053;-66
2021/04/17 05:14:49;;;;;;;3.63;2.40;;;;;;;3.99;69.84;101178.06;5019022;28;20041;-66
2021/04/17 05:17:15;;;;;;;3.42;2.45;;;;;;;4.03;70.14;101180.41;5018690;28;20110;-66
2021/04/17 05:19:41;;;;;;;3.45;2.40;;;;;;;4.13;69.59;101179.84;5016602;28;20539;-66
2021/04/17 05:22:07;;;;;;;2.10;1.60;;;;;;;4.10;69.90;101177.41;5025562;28;20037;-67
2021/04/17 05:24:33;;;;;;;3.83;2.40;;;;;;;4.12;71.15;101165.06;5024975;28;20096;-66
2021/04/17 05:26:58;;;;;;;3.45;2.25;;;;;;;4.24;71.27;101169.53;5019670;28;20041;-67
2021/04/17 05:29:24;;;;;;;3.33;2.25;;;;;;;4.38;69.57;101185.22;5012642;28;20034;-66
2021/04/17 05:31:49;;;;;;;4.40;2.70;;;;;;;4.44;69.40;101179.63;5018575;28;20402;-66
2021/04/17 05:34:14;;;;;;;6.32;2.90;;;;;;;4.34;70.62;101189.00;5022456;28;20036;-66
2021/04/17 05:36:40;;;;;;;5.28;2.92;;;;;;;4.36;70.72;101188.88;5030968;28;20038;-66
2021/04/17 05:39:05;;;;;;;4.60;3.05;;;;;;;4.54;69.41;101182.50;5005744;28;20042;-67
2021/04/17 05:41:31;;;;;;;4.57;3.20;;;;;;;4.47;71.55;101178.59;5021159;28;20037;-66
2021/04/17 05:43:57;;;;;;;4.18;2.63;;;;;;;4.59;69.83;101184.81;5010230;28;20042;-66
2021/04/17 05:46:22;;;;;;;4.38;2.72;;;;;;;4.68;69.56;101181.63;5000653;28;20103;-67
2021/04/17 05:48:47;;;;;;;3.50;2.50;;;;;;;4.69;69.38;101183.31;5022510;28;20026;-67
2021/04/17 05:51:13;;;;;;;6.55;3.28;;;;;;;4.81;68.99;101181.69;5021383;28;20108;-66
2021/04/17 05:53:38;;;;;;;3.17;2.25;;;;;;;4.81;69.09;101181.69;5024335;28;20604;-67
2021/04/17 05:56:04;;;;;;;4.68;3.40;;;;;;;4.90;68.06;101186.34;5024280;28;20047;-67
2021/04/17 05:58:29;;;;;;;4.88;2.70;;;;;;;4.84;68.41;101182.34;5014797;28;20041;-67
2021/04/17 06:00:54;;;;;;;5.00;3.00;;;;;;;4.82;68.80;101188.63;5025833;28;20045;-66
2021/04/17 06:03:20;;;;;;;3.80;2.90;;;;;;;4.97;68.83;101186.78;5016897;28;20151;-67
2021/04/17 06:05:45;;;;;;;4.20;2.92;;;;;;;5.10;67.96;101185.03;5021497;28;20034;-67
2021/04/17 06:08:11;;;;;;;5.13;2.88;;;;;;;5.20;66.39;101185.28;5010058;28;20040;-67
2021/04/17 06:10:36;;;;;;;4.45;3.20;;;;;;;5.20;65.92;101194.00;5022225;28;20406;-67
2021/04/17 06:13:02;;;;;;;5.50;2.65;;;;;;;5.20;66.45;101195.78;5015390;28;20407;-67
2021/04/17 06:15:27;;;;;;;6.10;3.25;;;;;;;5.23;66.83;101188.53;5023993;28;20437;-67
2021/04/17 06:17:53;;;;;;;4.00;2.55;;;;;;;5.28;66.22;101189.06;5024914;28;20037;-66
2021/04/17 06:20:18;;;;;;;4.15;2.55;;;;;;;5.28;67.39;101190.84;5022544;28;20060;-66
2021/04/17 06:22:43;;;;;;;4.25;3.10;;;;;;;5.24;67.32;101189.38;5009404;28;20034;-66
2021/04/17 06:25:10;;;;;;;6.32;3.47;;;;;;;5.25;67.47;101191.06;5017314;28;20042;-66
2021/04/17 06:27:35;;;;;;;4.32;3.38;;;;;;;5.49;66.45;101185.97;5019925;28;20033;-67
2021/04/17 06:30:02;;;;;;;4.53;3.10;;;;;;;5.50;66.11;101179.78;5001184;28;20048;-68
2021/04/17 06:32:28;;;;;;;3.67;2.53;;;;;;;5.64;66.37;101184.94;5018245;28;20034;-67
2021/04/17 06:34:53;;;;;;;3.97;2.80;;;;;;;5.83;66.23;101184.53;5008526;28;20037;-66
2021/04/17 06:37:18;;;;;;;5.55;3.10;;;;;;;6.11;65.44;101182.66;5007595;28;20049;-66
2021/04/17 06:39:44;;;;;;;4.97;3.47;;;;;;;6.36;64.62;101180.00;5002830;28;20445;-67
2021/04/17 06:42:13;;;;;;;4.35;3.42;;;;;;;6.38;64.68;101175.44;5010306;28;20432;-66
2021/04/17 06:44:42;;;;;;;5.13;3.28;;;;;;;6.52;64.68;101177.09;5019695;28;21412;-67
2021/04/17 06:47:12;;;;;;;6.78;3.60;;;;;;;6.73;64.26;101174.72;5024448;28;20034;-66
2021/04/17 06:49:38;;;;;;;4.10;3.00;;;;;;;6.80;64.23;101180.38;5020879;28;20037;-66
2021/04/17 06:52:04;;;;;;;5.65;3.10;;;;;;;7.00;63.15;101171.88;5027685;28;20114;-67
2021/04/17 06:54:31;;;;;;;6.65;3.72;;;;;;;7.18;63.64;101179.38;5010573;28;20085;-67
2021/04/17 06:56:56;;;;;;;5.18;3.40;;;;;;;7.21;61.26;101173.88;5015862;28;20046;-67
2021/04/17 06:59:22;;;;;;;4.68;2.97;;;;;;;7.10;62.27;101169.38;5021523;28;20564;-67
2021/04/17 07:01:48;;;;;;;5.03;2.97;;;;;;;6.87;62.80;101172.91;5023227;28;20034;-66
2021/04/17 07:04:14;;;;;;;5.82;3.17;;;;;;;6.48;65.72;101175.63;5015276;28;20079;-67
2021/04/17 07:06:40;;;;;;;3.20;2.55;;;;;;;6.58;64.29;101171.41;5024756;28;20544;-67
2021/04/17 07:09:06;;;;;;;6.40;2.60;;;;;;;6.64;64.61;101166.66;5023688;28;20045;-67
2021/04/17 07:11:31;;;;;;;7.03;3.97;;;;;;;6.66;63.73;101173.50;5020320;28;20037;-67
2021/04/17 07:14:08;;;;;;;6.07;3.58;;;;;;;6.66;63.81;101170.88;5010797;28;20086;-67
2021/04/17 07:16:59;;;;;;;7.75;4.13;;;;;;;6.58;64.38;101175.84;5023962;28;20038;-67
2021/04/17 07:19:25;;;;;;;8.75;3.88;;;;;;;6.83;63.34;101174.91;5023767;28;20033;-66
2021/04/17 07:21:52;;;;;;;6.00;3.83;;;;;;;7.05;62.64;101174.16;5004985;28;20037;-67
2021/04/17 07:24:24;;;;;;;5.78;3.22;;;;;;;7.04;65.50;101169.03;5023914;28;20036;-66
2021/04/17 07:26:49;;;;;;;5.15;3.65;;;;;;;8.13;63.15;101180.03;5022123;28;20022;-67
2021/04/17 07:29:14;;;;;;;3.70;2.60;;;;;;;9.12;59.28;101181.75;5015228;28;20038;-67
2021/04/17 07:31:52;;;;;;;7.90;4.47;;;;;;;9.64;57.17;101173.13;5022430;28;20026;-67
2021/04/17 07:34:20;;;;;;;9.95;5.75;;;;;;;9.86;55.83;101175.59;5020384;28;20144;-67
2021/04/17 07:36:52;;;;;;;9.43;5.47;;;;;;;9.86;54.19;101177.41;5019338;28;20041;-66
2021/04/17 07:39:32;;;;;;;7.00;4.07;;;;;;;9.71;55.18;101179.53;5018352;28;20116;-67
2021/04/17 07:42:04;;;;;;;5.70;3.92;;;;;;;9.92;54.75;101175.06;5025783;28;20375;-67
2021/04/17 07:44:31;;;;;;;6.03;4.22;;;;;;;9.78;54.17;101172.78;5025494;28;20044;-67
2021/04/17 07:46:57;;;;;;;6.78;3.83;;;;;;;9.77;54.03;101171.94;5023122;28;20034;-66
2021/04/17 07:49:22;;;;;;;7.85;3.53;;;;;;;10.40;52.43;101170.97;5020377;28;20048;-67
2021/04/17 07:52:11;;;;;;;6.00;3.85;;;;;;;11.41;52.33;101169.78;5032042;28;20037;-67
2021/04/17 07:54:38;;;;;;;5.38;4.00;;;;;;;12.08;48.34;101173.31;5022359;28;20044;-67
2021/04/17 07:57:05;;;;;;;7.55;3.67;;;;;;;12.11;48.92;101167.69;5020526;28;20399;-67
2021/04/17 07:59:31;;;;;;;6.38;3.92;;;;;;;12.20;48.59;101173.09;5005374;28;20038;-67
2021/04/17 08:01:57;;;;;;;6.43;4.22;;;;;;;11.89;46.24;101178.66;5023641;28;20155;-66
2021/04/17 08:04:25;;;;;;;4.60;3.25;;;;;;;12.82;45.18;101171.47;5023206;28;20184;-66
2021/04/17 08:06:52;;;;;;;4.60;2.75;;;;;;;13.68;45.46;101170.06;5020067;28;20238;-67
2021/04/17 08:09:19;;;;;;;6.15;3.08;;;;;;;13.97;42.25;101165.25;5015835;28;20040;-67
2021/04/17 08:11:45;;;;;;;4.53;3.28;;;;;;;14.04;42.73;101162.81;5022761;28;20505;-67
2021/04/17 08:14:11;;;;;;;4.38;2.30;;;;;;;14.53;41.43;101168.31;5015329;28;20046;-67
2021/04/17 08:16:38;;;;;;;3.75;2.33;;;;;;;14.57;41.41;101169.69;5005568;28;20084;-67
2021/04/17 08:19:04;;;;;;;5.35;3.42;;;;;;;14.15;41.83;101154.53;5014490;28;20041;-67
2021/04/17 08:21:29;;;;;;;6.35;3.33;;;;;;;13.58;41.55;101163.00;5024223;28;20444;-67
2021/04/17 08:23:56;;;;;;;3.60;2.58;;;;;;;13.32;44.24;101160.38;5019934;28;20045;-67
2021/04/17 08:26:21;;;;;;;5.82;3.90;;;;;;;13.30;43.96;101158.81;5009741;28;20045;-67
2021/04/17 08:28:52;;;;;;;5.18;4.05;;;;;;;13.19;41.96;101165.19;5005700;28;20034;-67
2021/04/17 08:31:38;;;;;;;;;;;;;;;12.73;43.77;101159.13;5020239;28;20382;-67
2021/04/17 08:34:23;;;;;;;4.45;3.22;;;;;;;13.04;44.13;101153.44;4998383;28;19920;-67
2021/04/17 08:36:52;;;;;;;7.13;3.85;;;;;;;13.06;43.35;101162.94;5012542;28;20075;-67
2021/04/17 08:39:36;;;;;;;5.80;3.20;;;;;;;13.12;44.05;101162.31;5010350;28;20051;-67
2021/04/17 08:42:06;;;;;;;5.45;2.58;;;;;;;13.50;38.50;101155.00;5009208;28;20559;-68
2021/04/17 08:44:37;;;;;;;5.15;2.50;;;;;;;13.16;38.08;101153.06;5014164;28;20034;-67
2021/04/17 08:47:06;;;;;;;3.28;2.00;;;;;;;13.14;35.75;101140.91;4998524;28;20274;-67
2021/04/17 08:49:35;;;;;;;3.22;2.05;;;;;;;12.99;37.33;101153.91;4996171;28;20430;-67
2021/04/17 08:52:19;;;;;;;3.33;2.10;;;;;;;13.08;36.60;101146.81;5012886;28;20034;-67
2021/04/17 08:55:02;;;;;;;3.05;1.80;;;;;;;12.80;37.01;101143.41;4994128;28;20091;-67
2021/04/17 08:57:28;;;;;;;3.67;2.20;;;;;;;13.18;37.29;101139.63;5010413;28;20494;-67
2021/04/17 08:59:57;;;;;;;2.90;1.95;;;;;;;13.20;36.49;101142.13;5015566;28;20037;-67
2021/04/17 09:02:26;;;;;;;4.40;1.75;;;;;;;13.08;34.25;101144.19;5010295;28;20056;-67
2021/04/17 09:05:05;;;;;;;5.38;1.75;;;;;;;12.85;35.83;101147.31;5010305;28;20510;-67
2021/04/17 09:07:43;;;;;;;3.67;1.73;;;;;;;13.12;36.31;101140.22;4983097;28;20049;-67
2021/04/17 09:10:38;;;;;;;4.05;1.83;;;;;;;13.50;34.96;101143.53;5006179;28;20123;-67
2021/04/17 09:13:15;;;;;;;6.88;1.92;;;;;;;13.67;35.12;101139.16;4982890;28;20520;-67
2021/04/17 09:16:00;;;;;;;2.72;1.70;;;;;;;13.32;33.60;101146.22;5005307;28;20140;-67
2021/04/17 09:18:36;;;;;;;3.00;1.92;;;;;;;13.34;33.08;101134.44;5011736;28;20053;-67
2021/04/17 09:21:22;;;;;;;4.40;2.20;;;;;;;13.13;33.51;101136.56;5012986;28;20111;-70
2021/04/17 09:23:52;;;;;;;2.35;1.67;;;;;;;13.35;35.65;101128.16;5014509;28;20410;-70
2021/04/17 09:26:33;;;;;;;4.90;2.03;;;;;;;13.85;33.60;101131.09;4993705;28;20033;-66
2021/04/17 09:29:04;;;;;;;;;;;;;;;13.83;33.04;101131.28;4998222;28;20569;-67
2021/04/17 09:31:38;;;;;;;4.63;2.17;;;;;;;14.16;32.78;101136.75;4993215;28;19921;-67
2021/04/17 09:34:08;;;;;;;3.55;1.85;;;;;;;14.31;32.80;101131.66;5005052;28;20049;-70
2021/04/17 09:36:34;;;;;;;2.80;1.70;;;;;;;14.28;32.14;101118.66;5012388;28;20045;-70
2021/04/17 09:39:21;;;;;;;4.45;1.70;;;;;;;14.43;32.53;101122.38;5010899;28;20037;-69
2021/04/17 09:41:52;;;;;;;3.65;1.63;;;;;;;14.47;32.74;101125.53;4991678;28;20041;-69
2021/04/17 09:44:20;;;;;;;3.10;1.73;;;;;;;14.32;32.16;101112.03;5010943;28;20030;-68
2021/04/17 09:46:47;;;;;;;2.42;1.60;;;;;;;14.19;31.93;101115.97;5012270;28;20045;-67
2021/04/17 09:49:35;;;;;;;2.83;1.70;;;;;;;14.05;34.03;101105.13;4994319;28;20061;-69
2021/04/17 09:52:01;;;;;;;3.35;1.80;;;;;;;14.27;33.06;101109.03;4993592;28;20026;-67
2021/04/17 09:54:28;;;;;;;5.80;2.58;;;;;;;14.56;33.45;101096.19;5010588;28;20034;-68
2021/04/17 09:56:55;;;;;;;2.90;1.70;;;;;;;14.42;33.97;101096.78;4993124;28;20064;-70
2021/04/17 09:59:21;;;;;;;3.40;1.55;;;;;;;14.14;34.99;101082.91;5003952;28;20114;-70
2021/04/17 10:01:58;;;;;;;3.95;1.98;;;;;;;14.34;32.76;101084.25;5010954;28;20033;-68
2021/04/17 10:04:23;;;;;;;2.65;1.60;;;;;;;14.21;32.87;101082.06;5010644;28;20041;-70
2021/04/17 10:06:57;;;;;;;3.53;1.60;;;;;;;14.10;32.10;101085.03;5011257;28;20046;-68
2021/04/17 10:09:22;;;;;;;3.47;1.80;;;;;;;14.35;33.79;101074.44;5011155;28;20474;-68
2021/04/17 10:11:48;;;;;;;2.88;1.90;;;;;;;14.32;33.67;101082.75;5011086;28;20128;-68
2021/04/17 10:14:16;;;;;;;3.60;1.40;;;;;;;14.20;36.11;101072.41;4992726;28;21069;-69
2021/04/17 10:16:47;;;;;;;5.13;2.78;;;;;;;14.38;34.91;101066.16;4996378;28;20037;-70
2021/04/17 10:19:16;;;;;;;3.72;2.13;;;;;;;14.15;37.85;101056.13;5010085;28;20054;-70
2021/04/17 10:21:45;;;;;;;4.40;2.30;;;;;;;13.92;34.82;101058.56;5009460;28;20502;-70
2021/04/17 10:24:30;;;;;;;3.33;2.20;;;;;;;14.04;32.82;101061.75;5008946;28;20056;-69
2021/04/17 10:27:06;;;;;;;3.95;1.95;;;;;;;13.76;35.30;101066.47;5007228;28;20037;-69
2021/04/17 10:29:41;;;;;;;4.20;2.17;;;;;;;13.75;35.54;101056.81;5008775;28;20034;-71
2021/04/17 10:32:10;;;;;;;3.45;2.20;;;;;;;14.02;33.87;101059.25;5009440;28;20034;-70
2021/04/17 10:34:37;;;;;;;5.05;2.25;;;;;;;14.35;29.82;101056.69;4998551;28;20082;-70
2021/04/17 10:37:12;;;;;;;3.42;1.80;;;;;;;14.12;29.10;101056.44;5013667;28;20040;-70
2021/04/17 10:39:56;;;;;;;4.82;1.88;;;;;;;13.99;29.09;101051.59;5013395;28;20088;-69
2021/04/17 10:42:21;;;;;;;3.35;2.08;;;;;;;13.83;33.46;101045.41;5011761;28;20401;-72
2021/04/17 10:44:54;;;;;;;3.10;2.10;;;;;;;13.75;33.58;101047.03;4994644;28;20037;-71
2021/04/17 10:47:20;;;;;;;3.97;2.30;;;;;;;13.72;35.30;101051.81;4999154;28;20026;-69
2021/04/17 10:49:45;;;;;;;3.28;2.25;;;;;;;13.79;33.71;101035.06;4994478;28;20401;-70
2021/04/17 10:52:30;;;;;;;4.88;2.35;;;;;;;13.89;32.77;101037.59;5011269;28;20050;-69
2021/04/17 10:54:56;;;;;;;4.25;2.78;;;;;;;13.94;32.30;101029.13;5011884;28;20046;-69
2021/04/17 10:57:23;;;;;;;3.72;1.80;;;;;;;13.78;35.39;101020.13;5012129;28;20092;-71
2021/04/17 11:00:00;;;;;;;4.72;2.60;;;;;;;14.26;32.49;101016.94;5011023;28;20034;-70
2021/04/17 11:02:28;;;;;;;4.28;2.53;;;;;;;14.31;29.52;101025.25;5012512;28;20042;-71
2021/04/17 11:04:54;;;;;;;3.25;2.00;;;;;;;14.23;30.47;101010.13;5012895;28;20034;-70
2021/04/17 11:07:30;;;;;;;3.67;2.10;;;;;;;14.20;31.60;101021.88;5013535;28;20061;-70
2021/04/17 11:09:55;;;;;;;2.92;2.10;;;;;;;14.27;31.29;101015.91;4995618;28;20042;-70
2021/04/17 11:12:27;;;;;;;3.22;2.03;;;;;;;14.22;31.32;101025.22;5013252;28;20042;-70
2021/04/17 11:15:11;;;;;;;2.92;2.13;;;;;;;14.08;31.38;101009.88;4996058;28;20038;-69
2021/04/17 11:17:36;;;;;;;2.40;1.65;;;;;;;13.92;31.99;101004.53;5004240;28;20033;-70
2021/04/17 11:20:17;;;;;;;4.55;2.22;;;;;;;14.29;30.06;101000.63;5012906;28;20394;-70
2021/04/17 11:22:42;;;;;;;2.92;1.90;;;;;;;14.19;30.64;100996.28;5011332;28;20041;-70
2021/04/17 11:25:08;;;;;;;3.63;2.15;;;;;;;14.36;29.86;100996.31;4995350;28;20034;-69
2021/04/17 11:27:34;;;;;;;3.63;1.98;;;;;;;14.27;29.34;101000.78;4991717;28;20030;-69
2021/04/17 11:30:02;;;;;;;3.67;2.00;;;;;;;14.18;29.88;100997.31;5008647;28;20030;-68
2021/04/17 11:32:27;;;;;;;3.17;1.75;;;;;;;14.22;30.72;100998.63;5011449;28;20061;-69
2021/04/17 11:34:53;;;;;;;5.82;2.17;;;;;;;14.03;29.61;100985.63;4996956;28;20065;-72
2021/04/17 11:37:19;;;;;;;4.07;2.30;;;;;;;13.89;29.93;100984.41;5017169;28;20026;-73